Time;durP1;ratioP1;P1;durP2;ratioP2;P2;SDS_P1;SDS_P2;PMS_P1;PMS_P2;Temp;Humidity;BMP_temperature;BMP_pressure;BME280_temperature;BME280_humidity;BME280_pressure;Samples;Min_cycle;Max_cycle;Signal;HPM_P1;HPM_P2
2022/06/17 00:01:40;;;;;;;4.80;1.80;;;;;;;16.29;49.57;99137.47;5014818;28;20064;-74
2022/06/17 00:04:08;;;;;;;3.10;1.58;;;;;;;16.25;49.71;99135.81;5015279;28;20100;-75
2022/06/17 00:06:57;;;;;;;8.30;2.05;;;;;;;16.23;49.83;99130.59;5014846;28;20042;-73
2022/06/17 00:09:27;;;;;;;6.27;2.10;;;;;;;16.17;50.12;99132.09;5013863;28;20057;-75
2022/06/17 00:11:54;;;;;;;7.63;1.83;;;;;;;16.11;50.17;99130.03;5013312;28;20295;-73
2022/06/17 00:14:25;;;;;;;7.00;2.00;;;;;;;16.11;50.40;99133.63;5014661;28;20046;-74
2022/06/17 00:16:52;;;;;;;4.20;1.85;;;;;;;16.06;50.62;99133.16;4996862;28;20050;-74
2022/06/17 00:19:19;;;;;;;4.40;2.10;;;;;;;16.05;50.26;99139.97;5014690;28;20421;-69
2022/06/17 00:21:51;;;;;;;6.22;1.70;;;;;;;16.03;50.27;99137.53;5014580;28;20049;-74
2022/06/17 00:24:23;;;;;;;7.03;2.22;;;;;;;16.02;50.28;99137.91;5014615;28;20053;-71
2022/06/17 00:26:51;;;;;;;3.58;1.63;;;;;;;16.01;50.59;99142.69;5014501;28;20066;-70
2022/06/17 00:29:21;;;;;;;7.50;1.65;;;;;;;16.00;50.55;99141.09;5014789;28;20150;-71
2022/06/17 00:31:51;;;;;;;11.07;2.08;;;;;;;15.97;50.89;99135.41;5012993;28;20557;-78
2022/06/17 00:34:18;;;;;;;67.78;20.38;;;;;;;16.00;50.99;99141.09;5014571;28;20064;-78
2022/06/17 00:36:45;;;;;;;20.23;7.50;;;;;;;16.02;50.75;99144.31;5014540;28;20076;-71
2022/06/17 00:39:20;;;;;;;6.15;2.90;;;;;;;16.02;50.88;99146.31;5014479;28;20049;-74
2022/06/17 00:41:52;;;;;;;4.40;2.03;;;;;;;16.00;50.59;99152.31;5014273;28;20052;-69
2022/06/17 00:44:40;;;;;;;4.75;2.05;;;;;;;15.99;50.82;99156.28;5014299;28;20050;-70
2022/06/17 00:47:22;;;;;;;5.47;2.53;;;;;;;15.97;50.48;99158.69;5012503;28;20045;-69
2022/06/17 00:50:01;;;;;;;9.55;2.45;;;;;;;15.93;50.44;99159.81;5012606;28;20145;-69
2022/06/17 00:52:36;;;;;;;8.10;2.28;;;;;;;15.90;49.94;99164.16;5014034;28;20050;-69
2022/06/17 00:55:22;;;;;;;6.18;2.08;;;;;;;15.90;50.29;99161.34;5014280;28;20462;-75
2022/06/17 00:57:49;;;;;;;6.18;2.15;;;;;;;15.86;50.15;99166.13;5028767;28;20126;-74
2022/06/17 01:00:26;;;;;;;4.65;2.15;;;;;;;15.89;50.36;99161.72;5014164;28;20138;-75
2022/06/17 01:03:00;;;;;;;4.22;1.83;;;;;;;15.90;50.29;99164.16;5013505;28;20062;-73
2022/06/17 01:05:41;;;;;;;5.38;2.00;;;;;;;15.91;50.22;99159.38;5013810;28;20057;-73
2022/06/17 01:09:56;;;;;;;3.10;1.70;;;;;;;15.90;50.09;99158.56;5013725;28;20049;-72
2022/06/17 01:11:08;;;;;;;3.75;1.83;;;;;;;15.89;49.86;99159.75;5013745;28;20046;-72
2022/06/17 01:13:36;;;;;;;3.35;2.08;;;;;;;15.90;49.68;99158.56;5013493;28;20050;-73
2022/06/17 01:16:04;;;;;;;4.93;2.15;;;;;;;15.90;49.75;99157.75;5013516;28;20512;-73
2022/06/17 01:18:36;;;;;;;5.13;1.95;;;;;;;15.93;49.94;99149.38;5013914;28;20085;-69
2022/06/17 01:21:12;;;;;;;7.28;1.67;;;;;;;15.89;50.46;99151.34;5013188;28;20080;-70
2022/06/17 01:23:40;;;;;;;5.13;1.80;;;;;;;15.86;50.47;99152.09;5012665;28;20060;-70
2022/06/17 01:26:07;;;;;;;4.97;1.80;;;;;;;15.88;50.76;99154.53;5012369;28;20406;-70
2022/06/17 01:28:34;;;;;;;5.28;2.10;;;;;;;15.88;50.36;99149.72;5013799;28;20515;-70
2022/06/17 01:31:04;;;;;;;3.45;1.75;;;;;;;15.88;50.40;99149.72;5012540;28;20474;-71
2022/06/17 01:33:39;;;;;;;3.75;1.70;;;;;;;15.88;51.00;99154.53;5013334;28;20037;-70
2022/06/17 01:36:10;;;;;;;10.65;1.80;;;;;;;15.90;50.84;99155.75;5013533;28;20397;-73
2022/06/17 01:38:40;;;;;;;6.10;2.30;;;;;;;15.88;50.61;99152.53;5012195;28;20140;-74
2022/06/17 01:41:07;;;;;;;;;;;;;;;15.83;51.00;99152.03;5012273;28;20041;-70
2022/06/17 01:43:53;;;;;;;3.92;1.95;;;;;;;15.90;50.61;99152.94;4995369;28;19979;-70
2022/06/17 01:46:37;;;;;;;8.00;2.17;;;;;;;15.91;50.96;99154.59;5012593;28;20536;-70
2022/06/17 01:49:09;;;;;;;6.50;1.98;;;;;;;15.91;50.97;99162.19;5012941;28;20072;-70
2022/06/17 01:51:41;;;;;;;3.78;1.67;;;;;;;15.93;51.03;99162.63;5012828;28;20071;-71
2022/06/17 01:54:14;;;;;;;2.88;1.60;;;;;;;15.88;51.28;99160.94;5012939;28;20467;-69
2022/06/17 01:56:43;;;;;;;4.68;1.70;;;;;;;15.91;51.34;99164.97;5012939;28;20521;-70
2022/06/17 01:59:15;;;;;;;4.07;1.80;;;;;;;15.93;51.06;99168.22;5013225;28;20136;-70
2022/06/17 02:01:46;;;;;;;5.95;3.22;;;;;;;15.90;51.11;99164.16;5012387;28;20141;-70
2022/06/17 02:04:25;;;;;;;5.25;1.90;;;;;;;15.90;51.31;99164.16;5027812;28;20509;-70
2022/06/17 02:07:00;;;;;;;9.73;2.83;;;;;;;15.83;51.30;99158.44;5012861;28;20050;-70
2022/06/17 02:09:27;;;;;;;6.38;2.10;;;;;;;15.82;51.21;99170.88;5011612;28;20064;-70
2022/06/17 02:11:58;;;;;;;3.63;2.05;;;;;;;15.85;51.45;99170.13;5012529;28;20136;-72
2022/06/17 02:14:25;;;;;;;3.53;1.85;;;;;;;15.83;51.25;99164.06;5012937;28;20053;-70
2022/06/17 02:16:54;;;;;;;4.10;1.83;;;;;;;15.90;51.34;99163.38;5013047;28;20042;-69
2022/06/17 02:19:25;;;;;;;6.45;1.80;;;;;;;15.91;50.93;99170.59;5012909;28;20137;-70
2022/06/17 02:22:19;;;;;;;9.30;1.70;;;;;;;15.91;50.83;99165.81;5012983;28;20141;-70
2022/06/17 02:24:54;;;;;;;3.70;1.70;;;;;;;15.89;51.29;99162.56;5027677;28;20052;-70
2022/06/17 02:27:22;;;;;;;2.33;1.58;;;;;;;15.92;51.15;99163.78;5012672;28;20081;-70
2022/06/17 02:29:50;;;;;;;9.95;1.60;;;;;;;15.94;51.37;99162.25;5012754;28;20069;-69
2022/06/17 02:32:20;;;;;;;7.90;1.83;;;;;;;15.98;50.93;99154.69;5013095;28;20048;-69
2022/06/17 02:35:30;;;;;;;6.07;1.98;;;;;;;16.05;51.05;99159.59;5012386;28;20589;-74
2022/06/17 02:37:58;;;;;;;6.72;1.77;;;;;;;16.12;50.89;99162.50;5001976;28;20056;-74
2022/06/17 02:40:33;;;;;;;5.90;1.58;;;;;;;16.30;50.37;99166.38;5012707;28;20046;-76
2022/06/17 02:43:04;;;;;;;4.63;2.30;;;;;;;16.40;50.18;99163.72;5012414;28;20178;-77
2022/06/17 02:45:35;;;;;;;4.60;2.00;;;;;;;16.44;50.31;99167.41;5012238;28;20508;-76
2022/06/17 02:48:10;;;;;;;7.10;2.10;;;;;;;16.40;50.44;99171.31;5012324;28;20049;-75
2022/06/17 02:50:37;;;;;;;8.55;4.32;;;;;;;16.29;51.19;99164.75;5011555;28;20487;-75
2022/06/17 02:53:04;;;;;;;5.38;2.00;;;;;;;16.25;51.25;99169.50;5012292;28;20058;-75
2022/06/17 02:55:36;;;;;;;5.60;2.38;;;;;;;16.23;51.45;99166.28;5012541;28;20409;-74
2022/06/17 02:58:18;;;;;;;3.78;2.00;;;;;;;16.20;51.12;99162.22;5013222;28;20146;-76
2022/06/17 03:00:46;;;;;;;6.13;2.20;;;;;;;16.27;51.15;99167.94;5014732;28;20576;-74
2022/06/17 03:03:15;;;;;;;5.50;1.77;;;;;;;16.37;51.36;99183.31;5015586;28;20058;-75
2022/06/17 03:05:44;;;;;;;6.53;2.10;;;;;;;16.43;50.86;99179.81;5016419;28;20046;-74
2022/06/17 03:08:24;;;;;;;7.17;2.20;;;;;;;16.50;51.09;99178.31;5016037;28;20084;-73
2022/06/17 03:10:57;;;;;;;3.58;1.60;;;;;;;16.58;50.82;99180.03;5015840;28;20302;-70
2022/06/17 03:14:01;;;;;;;11.75;1.92;;;;;;;16.55;51.19;99177.97;5014394;28;20046;-72
2022/06/17 03:16:28;;;;;;;4.95;1.83;;;;;;;16.54;51.15;99165.94;4994862;28;20057;-70
2022/06/17 03:18:55;;;;;;;4.50;1.45;;;;;;;16.61;51.04;99176.47;5014227;28;20132;-70
2022/06/17 03:21:24;;;;;;;3.90;1.92;;;;;;;16.59;51.64;99176.03;5014841;28;20056;-73
2022/06/17 03:24:04;;;;;;;3.03;1.55;;;;;;;16.69;51.13;99166.94;5015736;28;20054;-72
2022/06/17 03:26:37;;;;;;;;;;;;;;;16.66;51.42;99167.69;5015959;28;20468;-71
2022/06/17 03:29:08;;;;;;;4.45;1.70;;;;;;;16.74;51.09;99173.03;5015847;28;19925;-70
2022/06/17 03:31:45;;;;;;;3.75;2.15;;;;;;;16.80;50.94;99167.88;5015446;28;20144;-70
2022/06/17 03:34:26;;;;;;;8.65;1.60;;;;;;;16.86;50.96;99169.97;5015312;28;20532;-73
2022/06/17 03:36:59;;;;;;;7.03;1.80;;;;;;;16.89;50.83;99166.38;5015286;28;20125;-70
2022/06/17 03:39:37;;;;;;;8.80;1.73;;;;;;;16.88;51.01;99163.97;5015342;28;20048;-71
2022/06/17 03:42:17;;;;;;;7.80;1.73;;;;;;;16.89;51.25;99171.19;5015308;28;20046;-70
2022/06/17 03:45:09;;;;;;;5.68;1.73;;;;;;;16.95;50.82;99173.28;5015160;28;20062;-71
2022/06/17 03:47:51;;;;;;;6.15;1.92;;;;;;;17.20;50.59;99168.72;5015255;28;20042;-70
2022/06/17 03:50:31;;;;;;;3.47;1.52;;;;;;;17.50;49.81;99165.88;5015173;28;20073;-69
2022/06/17 03:53:28;;;;;;;3.25;1.40;;;;;;;17.69;49.48;99166.44;5014816;28;20054;-72
2022/06/17 03:56:04;;;;;;;5.30;1.35;;;;;;;17.91;49.20;99167.41;5014318;28;20084;-69
2022/06/17 03:58:32;;;;;;;2.67;1.55;;;;;;;18.02;48.97;99173.94;5015334;28;20046;-69
2022/06/17 04:01:04;;;;;;;3.95;2.08;;;;;;;17.89;49.27;99170.59;5014869;28;20092;-70
2022/06/17 04:03:37;;;;;;;5.72;1.55;;;;;;;17.85;49.62;99171.78;5014482;28;20119;-70
2022/06/17 04:06:13;;;;;;;3.47;1.42;;;;;;;17.86;49.59;99159.34;5015136;28;20050;-70
2022/06/17 04:08:54;;;;;;;7.97;2.05;;;;;;;18.08;49.10;99172.38;5029858;28;20148;-69
2022/06/17 04:11:24;;;;;;;4.70;1.75;;;;;;;18.15;49.10;99166.81;5012730;28;20104;-69
2022/06/17 04:13:55;;;;;;;2.80;1.50;;;;;;;18.20;48.91;99169.22;5015568;28;20072;-70
2022/06/17 04:16:35;;;;;;;3.78;1.70;;;;;;;18.41;48.53;99175.03;5015206;28;20053;-70
2022/06/17 04:19:11;;;;;;;3.63;1.33;;;;;;;18.56;48.15;99168.25;5014414;28;20058;-70
2022/06/17 04:21:38;;;;;;;6.28;1.50;;;;;;;18.72;47.83;99173.59;5014428;28;20058;-69
2022/06/17 04:24:12;;;;;;;3.22;1.30;;;;;;;18.94;47.43;99164.81;5014364;28;20050;-69
2022/06/17 04:26:42;;;;;;;3.42;1.30;;;;;;;19.04;47.43;99163.25;5014880;28;20505;-70
2022/06/17 04:29:18;;;;;;;9.65;1.42;;;;;;;19.22;46.93;99164.09;5014472;28;20073;-70
2022/06/17 04:31:58;;;;;;;8.20;1.27;;;;;;;19.42;46.36;99151.28;5014756;28;20464;-68
2022/06/17 04:34:25;;;;;;;1.98;1.30;;;;;;;19.30;46.50;99158.09;5014405;28;20140;-69
2022/06/17 04:36:59;;;;;;;7.30;1.45;;;;;;;19.27;46.74;99158.91;5013571;28;20060;-69
2022/06/17 04:39:52;;;;;;;4.20;1.67;;;;;;;19.43;46.71;99139.59;5014359;28;20050;-70
2022/06/17 04:42:35;;;;;;;2.63;0.98;;;;;;;19.80;45.64;99147.66;5014143;28;20049;-70
2022/06/17 04:45:03;;;;;;;4.78;1.30;;;;;;;20.06;45.25;99141.59;5014033;28;20060;-70
2022/06/17 04:47:32;;;;;;;1.33;1.10;;;;;;;20.25;44.74;99148.88;5014102;28;20054;-70
2022/06/17 04:50:09;;;;;;;4.10;1.02;;;;;;;20.37;44.28;99146.41;5014036;28;20060;-71
2022/06/17 04:52:45;;;;;;;3.30;1.33;;;;;;;20.45;44.24;99147.19;5028875;28;20152;-71
2022/06/17 04:55:19;;;;;;;3.90;1.52;;;;;;;20.54;43.92;99150.44;5012825;28;20416;-70
2022/06/17 04:57:47;;;;;;;4.45;1.20;;;;;;;20.68;43.38;99153.19;5013563;28;20105;-69
2022/06/17 05:00:22;;;;;;;1.90;1.00;;;;;;;20.80;42.91;99144.25;5014253;28;20050;-71
2022/06/17 05:02:49;;;;;;;2.20;1.27;;;;;;;21.00;42.52;99148.25;5013463;28;20057;-69
2022/06/17 05:05:24;;;;;;;7.50;1.10;;;;;;;21.34;42.02;99144.41;5013909;28;20045;-70
2022/06/17 05:07:53;;;;;;;6.32;1.67;;;;;;;21.45;41.96;99139.50;5013501;28;20140;-74
2022/06/17 05:10:33;;;;;;;2.35;1.10;;;;;;;21.47;41.98;99144.72;5013566;28;20056;-73
2022/06/17 05:13:19;;;;;;;10.35;1.70;;;;;;;21.45;42.07;99150.00;5013400;28;20124;-70
2022/06/17 05:15:46;;;;;;;5.80;1.23;;;;;;;21.52;41.42;99156.41;5013639;28;20081;-70
2022/06/17 05:18:13;;;;;;;4.70;0.90;;;;;;;21.63;40.87;99147.84;5013022;28;20137;-70
2022/06/17 05:20:42;;;;;;;2.85;1.00;;;;;;;21.88;40.17;99150.50;5013414;28;20490;-70
2022/06/17 05:23:13;;;;;;;3.15;1.00;;;;;;;22.10;39.36;99146.25;5012787;28;20042;-70
2022/06/17 05:25:43;;;;;;;1.85;1.00;;;;;;;22.20;39.19;99146.16;5013471;28;20050;-71
2022/06/17 05:28:13;;;;;;;3.67;1.23;;;;;;;22.48;38.94;99145.88;5011860;28;20140;-72
2022/06/17 05:30:44;;;;;;;2.20;1.30;;;;;;;22.77;38.33;99141.50;5013158;28;20045;-70
2022/06/17 05:33:15;;;;;;;7.32;1.33;;;;;;;23.05;38.24;99144.00;5013129;28;20050;-70
2022/06/17 05:35:42;;;;;;;3.38;1.27;;;;;;;23.39;37.55;99143.97;5013582;28;20102;-70
2022/06/17 05:38:09;;;;;;;4.30;1.17;;;;;;;23.65;36.48;99139.50;5013478;28;20049;-70
2022/06/17 05:40:38;;;;;;;0.90;0.70;;;;;;;23.76;35.97;99140.13;5013438;28;20097;-77
2022/06/17 05:43:06;;;;;;;1.73;0.90;;;;;;;24.15;34.74;99140.28;5011971;28;20528;-75
2022/06/17 05:45:33;;;;;;;1.85;0.90;;;;;;;24.13;34.18;99137.88;5013192;28;20504;-79
2022/06/17 05:48:00;;;;;;;1.55;0.90;;;;;;;24.43;33.52;99129.22;5012184;28;20090;-76
2022/06/17 05:50:29;;;;;;;2.13;1.00;;;;;;;24.78;33.14;99136.28;5012804;28;20050;-75
2022/06/17 05:53:02;;;;;;;6.22;1.10;;;;;;;24.84;32.78;99137.38;5011972;28;20394;-79
2022/06/17 05:55:32;;;;;;;5.18;1.02;;;;;;;25.01;32.83;99136.19;5013143;28;20069;-74
2022/06/17 05:57:59;;;;;;;2.55;1.00;;;;;;;25.27;32.23;99132.34;5012887;28;20137;-79
2022/06/17 06:00:28;;;;;;;3.45;1.40;;;;;;;25.39;31.86;99134.56;5013192;28;20058;-74
2022/06/17 06:03:01;;;;;;;6.13;1.40;;;;;;;25.57;31.47;99134.13;5011427;28;20116;-70
2022/06/17 06:05:30;;;;;;;1.38;0.82;;;;;;;25.69;31.36;99122.06;5012961;28;20291;-74
2022/06/17 06:07:58;;;;;;;4.20;1.33;;;;;;;25.70;31.34;99118.75;5012620;28;20517;-70
2022/06/17 06:10:32;;;;;;;1.70;0.98;;;;;;;25.75;30.88;99118.22;5012758;28;20512;-70
2022/06/17 06:13:05;;;;;;;2.67;0.90;;;;;;;26.28;30.30;99117.69;5027553;28;20116;-70
2022/06/17 06:15:39;;;;;;;2.08;0.90;;;;;;;28.15;27.40;99110.75;5012889;28;20053;-69
2022/06/17 06:18:12;;;;;;;2.55;0.90;;;;;;;29.07;26.00;99111.09;5012945;28;20046;-70
2022/06/17 06:20:39;;;;;;;1.33;0.70;;;;;;;28.01;27.14;99108.34;5013161;28;20062;-70
2022/06/17 06:23:07;;;;;;;5.05;1.08;;;;;;;27.58;27.37;99118.78;5011120;28;20058;-70
2022/06/17 06:25:35;;;;;;;56.33;13.02;;;;;;;27.01;28.00;99114.00;5013440;28;20137;-73
2022/06/17 06:28:15;;;;;;;47.78;8.13;;;;;;;26.40;29.05;99119.81;5012680;28;20084;-73
2022/06/17 06:30:42;;;;;;;13.15;1.52;;;;;;;25.63;30.00;99113.22;5012758;28;20544;-73
2022/06/17 06:33:09;;;;;;;2.50;1.15;;;;;;;24.88;31.06;99104.75;5013646;28;20093;-73
2022/06/17 06:35:38;;;;;;;2.38;1.00;;;;;;;24.49;31.71;99104.72;5016688;28;20046;-77
2022/06/17 06:38:06;;;;;;;3.22;1.13;;;;;;;24.44;31.48;99101.56;5016208;28;20129;-74
2022/06/17 06:40:34;;;;;;;17.77;2.90;;;;;;;24.36;31.66;99105.78;5016677;28;20548;-78
2022/06/17 06:43:01;;;;;;;1.58;0.90;;;;;;;24.91;31.27;99103.06;5016185;28;20077;-74
2022/06/17 06:45:35;;;;;;;3.35;1.10;;;;;;;27.09;28.35;99100.31;5016438;28;20056;-77
2022/06/17 06:48:07;;;;;;;1.88;1.10;;;;;;;28.30;27.20;99093.91;5016063;28;20148;-73
2022/06/17 06:50:36;;;;;;;2.78;1.38;;;;;;;30.35;24.73;99093.97;5014996;28;20056;-75
2022/06/17 06:53:04;;;;;;;2.72;1.30;;;;;;;35.17;20.09;99095.53;5014958;28;20049;-75
2022/06/17 06:55:31;;;;;;;2.50;1.02;;;;;;;39.30;16.09;99098.59;5016354;28;20042;-73
2022/06/17 06:58:05;;;;;;;1.65;1.00;;;;;;;42.11;13.93;99097.31;5015747;28;20527;-76
2022/06/17 07:00:38;;;;;;;5.95;1.30;;;;;;;43.84;12.10;99095.97;5016345;28;20054;-76
2022/06/17 07:03:06;;;;;;;1.73;1.02;;;;;;;44.62;11.60;99095.44;5015799;28;20058;-73
2022/06/17 07:05:35;;;;;;;3.60;1.30;;;;;;;45.68;10.81;99103.41;5016372;28;20507;-75
2022/06/17 07:08:03;;;;;;;7.78;1.40;;;;;;;46.61;10.45;99097.78;5015898;28;20133;-76
2022/06/17 07:10:33;;;;;;;3.58;1.15;;;;;;;47.52;9.62;99093.09;5015834;28;20159;-76
2022/06/17 07:13:01;;;;;;;5.50;1.10;;;;;;;47.42;9.64;99095.13;5015764;28;20141;-76
2022/06/17 07:15:28;;;;;;;;;;;;;;;45.93;11.09;99089.72;5016541;28;20064;-76
2022/06/17 07:18:16;;;;;;;5.60;1.08;;;;;;;46.75;10.13;99096.16;5015687;28;19933;-74
2022/06/17 07:20:46;;;;;;;2.20;1.20;;;;;;;46.35;9.85;99090.91;5015821;28;20582;-77
2022/06/17 07:23:23;;;;;;;5.18;1.05;;;;;;;46.64;9.57;99081.88;5015550;28;20077;-74
2022/06/17 07:25:50;;;;;;;7.18;2.15;;;;;;;47.50;9.41;99084.84;5015324;28;20478;-75
2022/06/17 07:28:25;;;;;;;7.80;1.20;;;;;;;44.33;11.47;99079.22;5015621;28;20374;-72
2022/06/17 07:30:53;;;;;;;5.30;1.50;;;;;;;45.06;10.80;99079.47;5015819;28;20425;-73
2022/06/17 07:33:23;;;;;;;1.65;1.15;;;;;;;47.36;9.14;99073.94;5015198;28;20042;-75
2022/06/17 07:35:55;;;;;;;3.13;1.25;;;;;;;48.90;8.34;99078.97;5015566;28;20049;-73
2022/06/17 07:41:13;;;;;;;2.20;1.40;;;;;;;45.78;9.41;99069.13;5016086;28;20050;-76
2022/06/17 07:43:45;;;;;;;2.00;1.00;;;;;;;41.25;12.18;99073.50;5015087;28;20508;-74
2022/06/17 07:46:20;;;;;;;5.72;1.45;;;;;;;37.14;14.95;99070.47;4998067;28;20096;-73
2022/06/17 07:48:47;;;;;;;;;;;;;;;33.76;18.07;99067.88;5015597;28;20053;-73
2022/06/17 07:51:15;;;;;;;3.45;0.80;;;;;;;31.54;20.25;99073.25;5030034;28;20031;-74
2022/06/17 07:53:42;;;;;;;3.45;0.75;;;;;;;30.08;22.09;99070.94;5015165;28;20502;-70
2022/06/17 07:56:15;;;;;;;5.22;1.17;;;;;;;29.02;23.25;99068.72;5015062;28;20061;-69
2022/06/17 07:58:44;;;;;;;3.85;1.13;;;;;;;28.16;24.60;99068.63;5015009;28;20042;-70
2022/06/17 08:01:12;;;;;;;4.75;1.30;;;;;;;27.50;25.54;99066.75;5014955;28;20045;-69
2022/06/17 08:03:40;;;;;;;4.30;1.20;;;;;;;27.01;26.64;99067.50;5014587;28;20058;-68
2022/06/17 08:06:10;;;;;;;4.10;1.20;;;;;;;26.68;27.05;99064.81;5014717;28;20042;-70
2022/06/17 08:08:37;;;;;;;4.63;1.60;;;;;;;29.85;24.39;99058.00;5029728;28;20042;-71
2022/06/17 08:11:04;;;;;;;9.18;1.60;;;;;;;36.80;17.36;99058.03;5014693;28;20080;-70
2022/06/17 08:13:31;;;;;;;2.85;1.23;;;;;;;41.31;13.46;99058.78;5014533;28;20140;-73
2022/06/17 08:16:01;;;;;;;2.70;1.35;;;;;;;43.54;12.12;99064.19;5014416;28;20046;-72
2022/06/17 08:18:29;;;;;;;2.53;1.00;;;;;;;40.99;13.14;99049.16;5014797;28;20092;-72
2022/06/17 08:20:55;;;;;;;2.38;1.13;;;;;;;39.97;14.21;99047.25;5014656;28;20072;-72
2022/06/17 08:23:23;;;;;;;2.72;1.20;;;;;;;38.73;14.55;99046.28;5014362;28;20064;-71
2022/06/17 08:25:51;;;;;;;89.30;47.13;;;;;;;36.40;16.73;99052.56;5014938;28;20085;-71
2022/06/17 08:28:19;;;;;;;6.65;2.30;;;;;;;34.86;17.99;99049.19;5014277;28;20798;-72
2022/06/17 08:30:49;;;;;;;4.10;2.10;;;;;;;33.73;19.52;99046.59;5014108;28;20140;-72
2022/06/17 08:33:19;;;;;;;5.53;2.40;;;;;;;32.05;21.29;99055.88;5014432;28;20115;-72
2022/06/17 08:36:10;;;;;;;9.50;1.17;;;;;;;30.40;22.68;99046.59;5014405;28;20069;-70
2022/06/17 08:38:41;;;;;;;2.65;1.55;;;;;;;29.38;24.52;99046.00;5014129;28;20056;-70
2022/06/17 08:41:17;;;;;;;3.53;1.30;;;;;;;28.56;25.21;99043.88;5014415;28;20394;-70
2022/06/17 08:43:50;;;;;;;1.95;1.23;;;;;;;28.52;25.38;99057.53;5014328;28;20092;-72
2022/06/17 08:47:04;;;;;;;27.92;11.60;;;;;;;28.29;25.52;99044.44;5012581;28;20096;-71
2022/06/17 08:50:09;;;;;;;8.90;1.88;;;;;;;27.37;27.33;99074.56;5013820;28;20081;-75
2022/06/17 08:53:02;;;;;;;7.57;1.30;;;;;;;26.33;29.53;99073.56;5014052;28;20050;-75
2022/06/17 08:55:51;;;;;;;12.23;1.85;;;;;;;24.87;31.80;99100.28;5013860;28;20054;-75
2022/06/17 08:58:28;;;;;;;;;;;;;;;24.01;32.54;99095.09;5013019;28;20053;-73
2022/06/17 09:01:03;;;;;;;3.38;1.20;;;;;;;23.60;33.52;99097.38;5013758;28;20020;-71
2022/06/17 09:03:56;;;;;;;3.50;1.10;;;;;;;23.16;34.60;99090.75;5013468;28;20058;-71
2022/06/17 09:07:03;;;;;;;6.78;2.67;;;;;;;23.06;35.23;99091.69;5007348;28;20095;-74
2022/06/17 09:09:42;;;;;;;1.63;0.90;;;;;;;23.18;35.39;99090.31;5013217;28;20060;-74
2022/06/17 09:12:14;;;;;;;4.82;1.10;;;;;;;23.26;36.06;99089.78;5013087;28;20078;-76
2022/06/17 09:15:04;;;;;;;7.15;1.10;;;;;;;23.58;36.32;99088.47;5013412;28;20042;-75
2022/06/17 09:17:46;;;;;;;6.65;1.10;;;;;;;24.17;35.36;99087.47;5011192;28;20501;-73
2022/06/17 09:20:19;;;;;;;1.52;1.00;;;;;;;25.05;33.89;99080.00;5008921;28;20128;-75
2022/06/17 09:22:53;;;;;;;1.95;1.00;;;;;;;26.80;31.38;99078.31;5010072;28;20527;-74
2022/06/17 09:25:26;;;;;;;12.57;1.40;;;;;;;30.25;26.54;99080.88;5008546;28;20046;-74
2022/06/17 09:27:56;;;;;;;4.38;1.50;;;;;;;31.96;24.62;99085.53;5008660;28;20057;-74
2022/06/17 09:30:33;;;;;;;3.67;1.00;;;;;;;34.83;21.62;99076.19;5011237;28;20073;-74
2022/06/17 09:33:34;;;;;;;3.95;1.23;;;;;;;37.77;18.33;99065.81;5013298;28;20501;-74
2022/06/17 09:36:19;;;;;;;5.10;1.75;;;;;;;38.58;17.21;99074.91;5013218;28;20057;-75
2022/06/17 09:38:54;;;;;;;6.60;1.23;;;;;;;35.37;18.70;99068.66;5012997;28;20042;-75
2022/06/17 09:41:47;;;;;;;3.67;1.67;;;;;;;32.72;21.83;99065.47;5013477;28;20493;-75
2022/06/17 09:44:40;;;;;;;2.70;1.05;;;;;;;31.31;23.53;99071.09;5010646;28;20096;-74
2022/06/17 09:47:24;;;;;;;2.25;1.10;;;;;;;30.28;24.26;99061.91;5013053;28;20095;-73
2022/06/17 09:50:05;;;;;;;7.20;1.10;;;;;;;29.29;25.61;99060.28;5013115;28;20061;-74
2022/06/17 09:52:45;;;;;;;1.50;0.90;;;;;;;28.55;25.90;99065.19;5012998;28;20084;-76
2022/06/17 09:55:25;;;;;;;1.55;0.98;;;;;;;27.93;26.76;99058.41;5013777;28;20115;-74
2022/06/17 09:58:00;;;;;;;2.83;1.10;;;;;;;27.65;27.23;99062.19;5011769;28;20144;-73
2022/06/17 10:00:36;;;;;;;1.85;1.05;;;;;;;27.56;27.47;99061.28;5013317;28;20045;-74
2022/06/17 10:03:20;;;;;;;4.90;1.10;;;;;;;27.28;27.66;99059.34;5012588;28;20085;-74
2022/06/17 10:06:21;;;;;;;1.75;1.20;;;;;;;26.99;28.13;99050.06;5011469;28;20050;-73
2022/06/17 10:09:11;;;;;;;2.33;1.25;;;;;;;26.74;28.51;99051.56;5012040;28;20042;-70
2022/06/17 10:11:38;;;;;;;;;;;;;;;26.20;29.33;99047.81;5013212;28;20060;-71
2022/06/17 10:14:25;;;;;;;16.63;5.15;;;;;;;26.00;29.53;99038.63;5012535;28;19925;-71
2022/06/17 10:20:17;;;;;;;4.35;1.25;;;;;;;25.90;30.56;99024.63;5012902;28;20149;-71
2022/06/17 10:22:56;;;;;;;1.58;1.00;;;;;;;26.00;30.13;99015.81;5012465;28;20434;-71
2022/06/17 10:25:30;;;;;;;5.03;1.33;;;;;;;25.71;30.31;99019.81;5011236;28;20165;-72
2022/06/17 10:28:09;;;;;;;9.38;1.50;;;;;;;25.44;30.72;99017.25;5012777;28;20100;-71
2022/06/17 10:30:49;;;;;;;1.60;1.00;;;;;;;25.29;31.43;98993.19;5012811;28;20052;-74
2022/06/17 10:33:17;;;;;;;5.57;2.00;;;;;;;25.51;31.20;99005.69;5012213;28;20042;-72
2022/06/17 10:35:46;;;;;;;1.80;1.20;;;;;;;25.78;30.96;99003.34;5012612;28;20050;-72
2022/06/17 10:38:38;;;;;;;1.73;1.15;;;;;;;25.85;30.63;99011.72;5012265;28;20064;-71
2022/06/17 10:41:06;;;;;;;1.50;1.10;;;;;;;25.86;30.39;98989.69;5012547;28;20057;-71
2022/06/17 10:43:43;;;;;;;6.05;1.50;;;;;;;25.87;30.45;99000.66;5012255;28;20046;-72
2022/06/17 10:46:17;;;;;;;5.95;1.83;;;;;;;25.95;30.58;99004.91;5012721;28;20053;-72
2022/06/17 10:49:16;;;;;;;2.53;1.55;;;;;;;26.20;30.39;98987.94;5012401;28;20038;-71
2022/06/17 10:51:46;;;;;;;4.90;1.60;;;;;;;26.24;30.91;98997.22;5012450;28;20061;-71
2022/06/17 10:54:34;;;;;;;6.63;1.55;;;;;;;25.82;31.56;99004.06;5012561;28;20077;-73
2022/06/17 10:57:06;;;;;;;3.78;1.23;;;;;;;25.64;31.98;99008.63;5012400;28;20054;-74
2022/06/17 10:59:41;;;;;;;4.18;1.40;;;;;;;25.44;32.38;99005.88;5012313;28;20129;-70
2022/06/17 11:02:29;;;;;;;7.22;1.70;;;;;;;25.14;32.91;99009.03;5012175;28;20061;-69
2022/06/17 11:05:05;;;;;;;10.80;1.83;;;;;;;24.92;33.17;98999.38;5012644;28;20050;-70
2022/06/17 11:07:48;;;;;;;11.05;1.65;;;;;;;25.09;33.37;99006.69;5010196;28;20424;-71
2022/06/17 11:10:23;;;;;;;2.13;1.20;;;;;;;25.10;33.12;99005.44;5012182;28;20049;-71
2022/06/17 11:12:58;;;;;;;3.80;1.88;;;;;;;25.05;33.11;99003.13;5011620;28;20049;-71
2022/06/17 11:15:42;;;;;;;3.42;1.23;;;;;;;25.08;33.42;98999.41;5010879;28;20528;-71
2022/06/17 11:18:17;;;;;;;4.28;1.42;;;;;;;24.82;33.96;99004.06;5011872;28;20144;-71
2022/06/17 11:21:19;;;;;;;5.25;1.75;;;;;;;24.59;34.94;98994.81;5013713;28;20141;-72
2022/06/17 11:23:49;;;;;;;8.15;1.20;;;;;;;24.12;35.72;98990.50;5015668;28;20054;-70
2022/06/17 11:26:25;;;;;;;2.20;1.13;;;;;;;23.91;36.37;99003.09;5015453;28;20140;-70
2022/06/17 11:28:55;;;;;;;4.57;1.25;;;;;;;23.60;36.65;99017.88;5015154;28;20128;-70
2022/06/17 11:31:25;;;;;;;6.68;1.20;;;;;;;23.17;37.60;99014.91;5015429;28;20460;-69
2022/06/17 11:33:52;;;;;;;5.13;1.30;;;;;;;22.59;39.56;99027.50;5014959;28;20452;-71
2022/06/17 11:36:24;;;;;;;10.70;1.83;;;;;;;22.14;41.93;99020.34;5014009;28;20049;-71
2022/06/17 11:38:51;;;;;;;23.35;4.28;;;;;;;21.07;46.74;99015.25;5013788;28;20132;-70
2022/06/17 11:41:32;;;;;;;11.77;2.65;;;;;;;20.58;48.50;99026.84;5014048;28;20185;-71
2022/06/17 11:44:12;;;;;;;71.00;28.40;;;;;;;20.55;49.44;99050.28;5017456;28;20059;-70
2022/06/17 11:46:55;;;;;;;22.33;4.53;;;;;;;20.46;50.71;99028.09;5017742;28;20073;-69
2022/06/17 11:49:23;;;;;;;15.73;3.92;;;;;;;20.18;51.85;99030.25;5014178;28;20038;-73
2022/06/17 11:52:00;;;;;;;6.82;2.70;;;;;;;19.96;52.76;99038.75;5013426;28;20053;-71
2022/06/17 11:54:46;;;;;;;11.45;3.30;;;;;;;19.91;53.34;99041.19;5013402;28;20401;-70
2022/06/17 11:57:17;;;;;;;9.60;3.22;;;;;;;19.91;54.21;99022.25;5013423;28;20050;-70
2022/06/17 11:59:49;;;;;;;7.53;2.38;;;;;;;20.16;54.27;99024.22;5012229;28;20050;-70
2022/06/17 12:02:16;;;;;;;10.80;2.85;;;;;;;20.60;53.88;99013.13;5013493;28;20050;-70
2022/06/17 12:04:51;;;;;;;4.00;2.08;;;;;;;21.14;53.42;99015.22;5014118;28;20050;-69
2022/06/17 12:07:51;;;;;;;7.43;2.25;;;;;;;21.49;52.25;99003.59;5011302;28;20084;-70
2022/06/17 12:10:38;;;;;;;7.68;2.10;;;;;;;21.64;52.03;99019.22;5017961;28;20096;-72
2022/06/17 12:13:46;;;;;;;5.70;1.70;;;;;;;21.60;52.52;99027.75;5007115;28;20125;-70
2022/06/17 12:16:20;;;;;;;4.20;1.80;;;;;;;21.29;52.93;99045.78;5013365;28;20053;-72